Kinney, MN (55758)

4:59 PM CDT on May 05, 2015 (GMT -0500)
MNDOT | | Change Station
CLOSE
Current Station
Personal Weather Station
Location: Hibbing, MN
Elevation: 1487 ft
Nearby Weather Stations

Elev 1487 ft 47.45 °N, 92.89 °W | Updated 24 minutes ago

Clear
Clear
72 °F
Feels Like 74 °F
N
9
Wind Variable Wind from North
Gusts 16.0 mph

Today
High -- | Low -- °F
--% Chance of Precip.
Yesterday
High -- | Low -- °F
Precip. -- in
5:48 AM 8:28 PM
Full, 97% visible
Pressure 30.14 in
Visibility 10.0 miles
Clouds Clear
Heat Index 74 °F
Dew Point 27 °F
Humidity 18%
Rainfall in
Snow Depth Not available.
UV 4 out of 12
Pollen 10.80 out of 12
Air Quality Not available.
Flu Activity Sporadic
METAR KHIB 052153Z AUTO 15010G16KT 10SM CLR 23/M02 A3011 RMK AO2 SLP205 T02331017

More Conditions Fewer Conditions

Pressure 30.14 in
Visibility 10.0 miles
Clouds Clear
Heat Index 74 °F
Dew Point 27 °F
Humidity 18%
Rainfall in
Snow Depth Not available.
UV 4 out of 12
Pollen 10.80 out of 12
Air Quality Not available.
Flu Activity Sporadic
METAR KHIB 052153Z AUTO 15010G16KT 10SM CLR 23/M02 A3011 RMK AO2 SLP205 T02331017

More Conditions Fewer Conditions

10-Day Weather Forecast

Almanac

Astronomy

May. 05, 2015 Rise Set
Actual Time
Civil Twilight
Nautical Twilight
Astronomical Twilight
Moon
Length of Visible Light
Length of Day
Tomorrow will be .
, % of the Moon is Illuminated

Today's Extremes

State Highs State Lows

Community

WunderPhotos

Upload Photos

1,818,982 photos uploaded!

WunderBlogs® & News

Nearby

Air Quality

  Air Quality AQ Index Pollutant
Not available.

Snow Depth

Station Depth Elevation

Earthquake Activity

City Distance Mag. Time & Date
Minimum magnitude displayed is 2.5.

Coastal Water Temperatures

Place Temperature

Stations

Nearby Weather Stations

Station Location Temp. Windchill Dew Point Humidity Wind Precip. Elev Updated Type